Карточка аэропорта UAKK

Внимание!
Информация на этой странице в стадии наполнения.
Если вы не увидели какой-то информации, или заметили неточность - пожалуйста сообщите нам!
Спасибо!
Команда RU-STAFF
Название аэропортаКараганда
Название аэропорта (англ.)Karaganda
Превышение1768 ft. (538.9 m.)
Координаты49°40.302', 73°20.118'
Высота перехода10000ft
Эшелон переходаFL120, QNH<733:FL130
Коды ответчика0630-0637, 7220-7227
Зона ОрВДАстана РПИ (UACN)
Данные METARUAKK 141300Z 06003MPS 9999 -SHRA BKN024CB 22/18 Q1005 NOSIG RMK QFE707/0943
Проноз погоды (TAF)UAKK 141103Z 1412/1512 02004MPS 9999 SCT030CB BKN100 TX27/1509Z TN16/1424Z TEMPO 1412/1415 VRB01MPS 5000 -TSRA BKN030CB TEMPO 1415/1424 VRB13MPS 3100 -TSRA SQ SCT011 BKN020CB BECMG 1500/1502 08005MPS TEMPO 1500/1503 VRB01MPS 5000 -SHRA BR SCT011 BKN020CB TEMPO 1503/1512 VRB13MPS 3100 -TSRA SQ BKN030CB
NOTAMshow/hide NOTAM
AWOS   TABLE

Информация о ВПП

ВПП Длина ВПП (м.) Покрытие Курс ВПП Частота ILS
053601Железобетон50109.9
233601Железобетон230111.7

Диспетчерские позиции




Спутниковое изображение